Shannon, AR

12:29 AM CDT on July 04, 2015 (GMT -0500)
Cornerstone Farms | | Change Station
CLOSE
Current Station
Personal Weather Station
Location: Altheimer, AR
Elevation: 203 ft
Nearby Weather Stations

Elev 203 ft 34.24 °N, 91.76 °W | Updated 4 minutes ago

Partly Cloudy
Partly Cloudy
75.0 °F
Feels Like 73 °F
N
0.0
Wind Variable Wind from WSW
Gusts 2.0 mph

Today
High -- | Low -- °F
--% Chance of Precip.
Yesterday
High -- | Low -- °F
Precip. -- in
6:00 AM 8:22 PM
Waning Gibbous, 94% visible
Pressure 29.91 in
Visibility 9.0 miles
Clouds Clear
Heat Index 73 °F
Dew Point 74 °F
Humidity 98%
Rainfall 1.82 in
Snow Depth Not available.
UV 0 out of 12
Pollen .60 out of 12
Air Quality Not available.
Flu Activity Not available.
METAR KPBF 040453Z AUTO 24005KT 9SM CLR 24/23 A2992 RMK AO2 LTG DSNT NW SLP129 T02440233

More Conditions Fewer Conditions

Pressure 29.91 in
Visibility 9.0 miles
Clouds Clear
Heat Index 73 °F
Dew Point 74 °F
Humidity 98%
Rainfall 1.82 in
Snow Depth Not available.
UV 0 out of 12
Pollen .60 out of 12
Air Quality Not available.
Flu Activity Not available.
METAR KPBF 040453Z AUTO 24005KT 9SM CLR 24/23 A2992 RMK AO2 LTG DSNT NW SLP129 T02440233

More Conditions Fewer Conditions

10-Day Weather Forecast

×

Almanac

Astronomy

Jul. 04, 2015 Rise Set
Actual Time
Civil Twilight
Nautical Twilight
Astronomical Twilight
Moon
Length of Visible Light
Length of Day
Tomorrow will be .
, % of the Moon is Illuminated

Today's Extremes

State Highs State Lows

Community

WunderPhotos

Upload Photos

1,834,922 photos uploaded!

WunderBlogs® & News

Nearby

Air Quality

  Air Quality AQ Index Pollutant
Not available.

Snow Depth

Station Depth Elevation

Earthquake Activity

City Distance Mag. Time & Date
Minimum magnitude displayed is 2.5.

Coastal Water Temperatures

Place Temperature

Stations

Nearby Weather Stations

Station Location Temp. Windchill Dew Point Humidity Wind Precip. Elev Updated Type